VTANO VOHS-VOHS
Flight info
| Callsign | VTANO |
|---|---|
| Flight time | 0h 14m |
| Altitude | 1000 |
| Route | VFR CIRCUIT |
| Aircraft | C152/L-V/N |
Departure
| Time | 2026-04-11 09:04 |
|---|---|
| Airport | Rajiv Gandhi International Airport (VOHS) |
Arrival
| Time | 2026-04-11 09:19 |
|---|---|
| Airport | Rajiv Gandhi International Airport (VOHS) |
| Time | Latitude | Longitude | Altitude | Speed | Heading |
|---|---|---|---|---|---|
| 2026-04-11 08:44 | 17.23365 | 78.42574 | 1973 ft | 0 kts | 15° |
| 2026-04-11 08:54 | 17.23369 | 78.42576 | 1973 ft | 2 kts | 35° |
| 2026-04-11 08:54 | 17.23354 | 78.42593 | 1975 ft | 5 kts | 171° |
| 2026-04-11 08:54 | 17.23325 | 78.42597 | 1973 ft | 3 kts | 129° |
| 2026-04-11 08:55 | 17.23324 | 78.42606 | 1972 ft | 0 kts | 86° |
| 2026-04-11 08:55 | 17.23325 | 78.42623 | 1972 ft | 5 kts | 89° |
| 2026-04-11 08:55 | 17.23326 | 78.42668 | 1972 ft | 7 kts | 87° |
| 2026-04-11 08:55 | 17.23311 | 78.42718 | 1976 ft | 9 kts | 150° |
| 2026-04-11 08:56 | 17.23252 | 78.42730 | 1975 ft | 4 kts | 179° |
| 2026-04-11 08:56 | 17.23226 | 78.42731 | 1976 ft | 6 kts | 176° |
| 2026-04-11 08:56 | 17.23188 | 78.42731 | 1976 ft | 4 kts | 182° |
| 2026-04-11 08:56 | 17.23159 | 78.42731 | 1975 ft | 6 kts | 179° |
| 2026-04-11 08:57 | 17.23088 | 78.42708 | 1973 ft | 15 kts | 238° |
| 2026-04-11 08:57 | 17.23080 | 78.42607 | 1972 ft | 13 kts | 268° |
| 2026-04-11 08:57 | 17.23077 | 78.42515 | 1971 ft | 12 kts | 272° |
| 2026-04-11 08:57 | 17.23077 | 78.42428 | 1969 ft | 12 kts | 268° |
| 2026-04-11 08:58 | 17.23075 | 78.42341 | 1968 ft | 12 kts | 273° |
| 2026-04-11 08:58 | 17.23066 | 78.42261 | 1967 ft | 11 kts | 229° |
| 2026-04-11 08:58 | 17.23009 | 78.42239 | 1966 ft | 5 kts | 176° |
| 2026-04-11 08:58 | 17.22996 | 78.42238 | 1966 ft | 0 kts | 183° |
| 2026-04-11 09:02 | 17.22957 | 78.42238 | 1966 ft | 12 kts | 178° |
| 2026-04-11 09:02 | 17.22876 | 78.42284 | 1966 ft | 19 kts | 110° |
| 2026-04-11 09:03 | 17.22873 | 78.42470 | 1968 ft | 32 kts | 89° |
| 2026-04-11 09:03 | 17.22878 | 78.42837 | 1974 ft | 70 kts | 89° |
| 2026-04-11 09:03 | 17.22881 | 78.43395 | 2090 ft | 77 kts | 90° |
| 2026-04-11 09:03 | 17.22884 | 78.43948 | 2253 ft | 79 kts | 88° |
| 2026-04-11 09:04 | 17.22894 | 78.44552 | 2357 ft | 85 kts | 89° |
| 2026-04-11 09:04 | 17.22920 | 78.45178 | 2478 ft | 86 kts | 86° |
| 2026-04-11 09:04 | 17.22974 | 78.45800 | 2610 ft | 86 kts | 85° |
| 2026-04-11 09:04 | 17.22968 | 78.46423 | 2740 ft | 86 kts | 106° |
| 2026-04-11 09:05 | 17.22635 | 78.46919 | 2857 ft | 85 kts | 147° |
| 2026-04-11 09:05 | 17.22080 | 78.47123 | 2968 ft | 85 kts | 169° |
| 2026-04-11 09:05 | 17.21494 | 78.47249 | 3083 ft | 86 kts | 172° |
| 2026-04-11 09:05 | 17.20906 | 78.47159 | 3168 ft | 89 kts | 207° |
| 2026-04-11 09:06 | 17.20418 | 78.46741 | 3196 ft | 93 kts | 231° |
| 2026-04-11 09:06 | 17.20184 | 78.46140 | 3218 ft | 90 kts | 262° |
| 2026-04-11 09:06 | 17.20128 | 78.45474 | 3189 ft | 87 kts | 268° |
| 2026-04-11 09:06 | 17.20111 | 78.44865 | 3151 ft | 85 kts | 268° |
| 2026-04-11 09:07 | 17.20100 | 78.44280 | 3168 ft | 76 kts | 268° |
| 2026-04-11 09:07 | 17.20096 | 78.43740 | 3149 ft | 74 kts | 272° |
| 2026-04-11 09:07 | 17.20121 | 78.43179 | 3104 ft | 79 kts | 273° |
| 2026-04-11 09:07 | 17.20150 | 78.42610 | 3077 ft | 78 kts | 273° |
| 2026-04-11 09:08 | 17.20175 | 78.42048 | 3063 ft | 76 kts | 272° |
| 2026-04-11 09:08 | 17.20170 | 78.41497 | 3039 ft | 77 kts | 268° |
| 2026-04-11 09:08 | 17.20141 | 78.40943 | 3016 ft | 77 kts | 266° |
| 2026-04-11 09:08 | 17.20085 | 78.40406 | 2957 ft | 74 kts | 264° |
| 2026-04-11 09:09 | 17.20248 | 78.39910 | 2847 ft | 78 kts | 316° |
| 2026-04-11 09:09 | 17.20756 | 78.39711 | 2749 ft | 78 kts | 350° |
| 2026-04-11 09:09 | 17.21313 | 78.39650 | 2629 ft | 80 kts | 356° |
| 2026-04-11 09:09 | 17.21870 | 78.39648 | 2529 ft | 81 kts | 1° |
| 2026-04-11 09:10 | 17.22427 | 78.39713 | 2435 ft | 80 kts | 9° |
| 2026-04-11 09:10 | 17.22919 | 78.39932 | 2347 ft | 79 kts | 59° |
| 2026-04-11 09:10 | 17.22892 | 78.40517 | 2277 ft | 86 kts | 98° |
| 2026-04-11 09:10 | 17.22844 | 78.41135 | 2410 ft | 87 kts | 91° |
| 2026-04-11 09:11 | 17.22849 | 78.41770 | 2531 ft | 87 kts | 89° |
| 2026-04-11 09:11 | 17.22866 | 78.42400 | 2671 ft | 87 kts | 88° |
| 2026-04-11 09:11 | 17.22884 | 78.43027 | 2833 ft | 84 kts | 88° |
| 2026-04-11 09:11 | 17.22914 | 78.43649 | 2958 ft | 86 kts | 87° |
| 2026-04-11 09:12 | 17.22940 | 78.44274 | 3105 ft | 86 kts | 86° |
| 2026-04-11 09:12 | 17.22977 | 78.44907 | 3193 ft | 91 kts | 85° |
| 2026-04-11 09:12 | 17.23030 | 78.45585 | 3186 ft | 94 kts | 87° |
| 2026-04-11 09:12 | 17.23033 | 78.46269 | 3165 ft | 95 kts | 92° |
| 2026-04-11 09:13 | 17.22813 | 78.46913 | 3087 ft | 97 kts | 131° |
| 2026-04-11 09:13 | 17.22263 | 78.47251 | 3116 ft | 92 kts | 168° |
| 2026-04-11 09:13 | 17.21616 | 78.47301 | 3064 ft | 95 kts | 180° |
| 2026-04-11 09:13 | 17.20981 | 78.47214 | 3079 ft | 90 kts | 207° |
| 2026-04-11 09:14 | 17.20558 | 78.46745 | 3096 ft | 87 kts | 245° |
| 2026-04-11 09:14 | 17.20443 | 78.46123 | 3057 ft | 92 kts | 269° |
| 2026-04-11 09:14 | 17.20461 | 78.45458 | 3075 ft | 89 kts | 272° |
| 2026-04-11 09:14 | 17.20479 | 78.44803 | 3058 ft | 91 kts | 270° |
| 2026-04-11 09:15 | 17.20470 | 78.44154 | 3072 ft | 89 kts | 267° |
| 2026-04-11 09:15 | 17.20439 | 78.43505 | 3088 ft | 87 kts | 268° |
| 2026-04-11 09:15 | 17.20406 | 78.42877 | 3105 ft | 88 kts | 266° |
| 2026-04-11 09:15 | 17.20343 | 78.42244 | 3122 ft | 87 kts | 263° |
| 2026-04-11 09:16 | 17.20290 | 78.41611 | 3123 ft | 88 kts | 268° |
| 2026-04-11 09:16 | 17.20251 | 78.40978 | 3144 ft | 87 kts | 264° |
| 2026-04-11 09:16 | 17.20167 | 78.40352 | 3141 ft | 85 kts | 266° |
| 2026-04-11 09:16 | 17.20314 | 78.39766 | 2891 ft | 88 kts | 306° |
| 2026-04-11 09:17 | 17.20849 | 78.39525 | 2688 ft | 79 kts | 355° |
| 2026-04-11 09:17 | 17.21360 | 78.39534 | 2574 ft | 72 kts | 2° |
| 2026-04-11 09:17 | 17.21874 | 78.39581 | 2431 ft | 76 kts | 7° |
| 2026-04-11 09:17 | 17.22376 | 78.39693 | 2354 ft | 70 kts | 19° |
| 2026-04-11 09:18 | 17.22702 | 78.40009 | 2292 ft | 65 kts | 73° |
| 2026-04-11 09:18 | 17.22809 | 78.40485 | 2171 ft | 68 kts | 80° |
| 2026-04-11 09:18 | 17.22863 | 78.40990 | 2060 ft | 68 kts | 89° |
| 2026-04-11 09:18 | 17.22859 | 78.41452 | 1987 ft | 61 kts | 91° |
| 2026-04-11 09:19 | 17.22862 | 78.41852 | 1962 ft | 47 kts | 81° |
| 2026-04-11 09:19 | 17.22869 | 78.42213 | 1965 ft | 66 kts | 90° |
| 2026-04-11 09:19 | 17.22878 | 78.42743 | 2113 ft | 71 kts | 90° |
| 2026-04-11 09:19 | 17.22894 | 78.43273 | 2273 ft | 74 kts | 86° |
| 2026-04-11 09:20 | 17.22919 | 78.43804 | 2452 ft | 74 kts | 91° |
| 2026-04-11 09:20 | 17.22931 | 78.44341 | 2631 ft | 74 kts | 90° |
| 2026-04-11 09:20 | 17.22935 | 78.44878 | 2812 ft | 73 kts | 88° |
| 2026-04-11 09:20 | 17.22929 | 78.45419 | 2968 ft | 74 kts | 90° |
| 2026-04-11 09:21 | 17.22911 | 78.45962 | 3137 ft | 75 kts | 89° |
| 2026-04-11 09:21 | 17.22836 | 78.46557 | 3138 ft | 87 kts | 116° |
| 2026-04-11 09:21 | 17.22397 | 78.46894 | 3156 ft | 77 kts | 171° |
| 2026-04-11 09:21 | 17.21871 | 78.46926 | 3139 ft | 76 kts | 180° |
| 2026-04-11 09:22 | 17.21352 | 78.46898 | 3121 ft | 74 kts | 201° |
| 2026-04-11 09:22 | 17.21020 | 78.46538 | 3131 ft | 69 kts | 254° |
| 2026-04-11 09:22 | 17.21018 | 78.46039 | 3129 ft | 68 kts | 272° |
| 2026-04-11 09:22 | 17.21025 | 78.45540 | 3111 ft | 70 kts | 270° |
| 2026-04-11 09:23 | 17.21027 | 78.45026 | 3090 ft | 72 kts | 270° |
| 2026-04-11 09:23 | 17.21024 | 78.44502 | 3094 ft | 76 kts | 269° |
| 2026-04-11 09:23 | 17.21017 | 78.43930 | 3097 ft | 82 kts | 270° |
| 2026-04-11 09:23 | 17.21004 | 78.43331 | 3086 ft | 81 kts | 268° |
| 2026-04-11 09:24 | 17.20990 | 78.42746 | 3064 ft | 81 kts | 269° |
| 2026-04-11 09:24 | 17.20977 | 78.42158 | 3044 ft | 81 kts | 268° |
| 2026-04-11 09:24 | 17.20969 | 78.41568 | 3051 ft | 80 kts | 268° |
| 2026-04-11 09:24 | 17.20951 | 78.40983 | 3014 ft | 82 kts | 269° |
| 2026-04-11 09:25 | 17.20940 | 78.40398 | 2902 ft | 82 kts | 271° |
| 2026-04-11 09:25 | 17.21143 | 78.39874 | 2786 ft | 82 kts | 325° |
| 2026-04-11 09:25 | 17.21695 | 78.39767 | 2663 ft | 83 kts | 357° |
| 2026-04-11 09:25 | 17.22268 | 78.39766 | 2552 ft | 83 kts | 2° |
| 2026-04-11 09:26 | 17.22817 | 78.39928 | 2457 ft | 81 kts | 43° |
| 2026-04-11 09:26 | 17.22913 | 78.40478 | 2310 ft | 85 kts | 94° |
| 2026-04-11 09:26 | 17.22873 | 78.41082 | 2098 ft | 83 kts | 92° |
| 2026-04-11 09:26 | 17.22853 | 78.41652 | 1972 ft | 70 kts | 88° |
| 2026-04-11 09:27 | 17.22861 | 78.42098 | 1963 ft | 52 kts | 87° |
| 2026-04-11 09:27 | 17.22919 | 78.42252 | 1965 ft | 8 kts | 357° |
| 2026-04-11 09:27 | 17.22965 | 78.42239 | 1966 ft | 5 kts | 1° |
| 2026-04-11 09:27 | 17.22974 | 78.42239 | 1966 ft | 0 kts | 357° |
| 2026-04-11 09:29 | 17.22996 | 78.42238 | 1966 ft | 4 kts | 359° |
| 2026-04-11 09:29 | 17.23056 | 78.42219 | 1967 ft | 8 kts | 314° |